Tarlton, Ohio
Current Conditions -  °F | °C
As of 6:53 AM on Saturday 22 Nov 2014 (Local Time) from KLHQ Reporting Station
Overcast Overcast  
Wind Chill: 21°   Ceiling: 3000
Heat Index: 29°   Visibility: 10mi
Dew Point: 20°   Wind: 8mph
Humidity: 69%   Direction: 130°SE
Pressure: 30.31"   Gusts: NA
Location:  39.56°N, 82.78°W
Report Text: KLHQ 221153Z AUTO 13007KT 10SM BKN030 OVC037 M02/M07 A3031 RMK AO2 UPB02E47 SLP278 P0000 60000 T10171067 11017 21106 56010
Loading
Personal Weather Stations






























Interactive Weather Map New forecast layout! Learn more

10-Day Weather Forecast

Advertisements
Track Severe Weather on mobile